sensor_id;sensor_type;location;lat;lon;timestamp;temperature;humidity
79513;SHT31;68962;51.980;5.678;2023-07-02T00:00:34;19.9;67.0
79513;SHT31;68962;51.980;5.678;2023-07-02T00:03:05;20.0;66.7
79513;SHT31;68962;51.980;5.678;2023-07-02T00:05:33;20.0;66.7
79513;SHT31;68962;51.980;5.678;2023-07-02T00:34:26;20.2;61.4
79513;SHT31;68962;51.980;5.678;2023-07-02T00:36:54;20.1;61.6
79513;SHT31;68962;51.980;5.678;2023-07-02T00:39:25;20.0;61.3
79513;SHT31;68962;51.980;5.678;2023-07-02T00:41:59;20.0;61.7
79513;SHT31;68962;51.980;5.678;2023-07-02T00:44:29;20.0;62.0
79513;SHT31;68962;51.980;5.678;2023-07-02T00:46:58;20.0;62.3
79513;SHT31;68962;51.980;5.678;2023-07-02T00:49:26;20.0;62.5
79513;SHT31;68962;51.980;5.678;2023-07-02T00:51:56;20.0;62.9
79513;SHT31;68962;51.980;5.678;2023-07-02T00:54:31;20.0;62.7
79513;SHT31;68962;51.980;5.678;2023-07-02T00:57:02;20.0;62.7
79513;SHT31;68962;51.980;5.678;2023-07-02T00:59:32;20.0;62.5
79513;SHT31;68962;51.980;5.678;2023-07-02T01:02:02;20.0;61.4
79513;SHT31;68962;51.980;5.678;2023-07-02T01:04:31;20.0;61.6
79513;SHT31;68962;51.980;5.678;2023-07-02T01:07:00;19.9;61.5
79513;SHT31;68962;51.980;5.678;2023-07-02T01:09:32;19.8;60.5
79513;SHT31;68962;51.980;5.678;2023-07-02T01:12:04;19.8;60.3
79513;SHT31;68962;51.980;5.678;2023-07-02T01:14:37;19.7;60.9
79513;SHT31;68962;51.980;5.678;2023-07-02T01:17:07;19.6;60.5
79513;SHT31;68962;51.980;5.678;2023-07-02T01:19:42;19.6;61.1
79513;SHT31;68962;51.980;5.678;2023-07-02T01:22:13;19.5;61.0
79513;SHT31;68962;51.980;5.678;2023-07-02T01:24:42;19.4;61.4
79513;SHT31;68962;51.980;5.678;2023-07-02T01:27:10;19.3;61.3
79513;SHT31;68962;51.980;5.678;2023-07-02T01:29:41;19.3;61.5
79513;SHT31;68962;51.980;5.678;2023-07-02T01:32:11;19.2;62.0
79513;SHT31;68962;51.980;5.678;2023-07-02T01:34:40;19.1;62.3
79513;SHT31;68962;51.980;5.678;2023-07-02T01:37:12;19.0;62.3
79513;SHT31;68962;51.980;5.678;2023-07-02T01:39:40;19.0;62.8
79513;SHT31;68962;51.980;5.678;2023-07-02T01:42:10;19.0;63.0
79513;SHT31;68962;51.980;5.678;2023-07-02T01:44:41;18.9;63.1
79513;SHT31;68962;51.980;5.678;2023-07-02T02:05:33;18.1;66.2
79513;SHT31;68962;51.980;5.678;2023-07-02T02:08:02;18.0;66.9
79513;SHT31;68962;51.980;5.678;2023-07-02T02:10:30;18.1;66.2
79513;SHT31;68962;51.980;5.678;2023-07-02T02:12:59;18.0;66.4
79513;SHT31;68962;51.980;5.678;2023-07-02T02:15:29;17.9;67.0
79513;SHT31;68962;51.980;5.678;2023-07-02T02:17:58;17.9;67.3
79513;SHT31;68962;51.980;5.678;2023-07-02T02:20:27;17.8;67.4
79513;SHT31;68962;51.980;5.678;2023-07-02T02:23:00;17.9;67.4
79513;SHT31;68962;51.980;5.678;2023-07-02T02:25:40;17.9;67.3
79513;SHT31;68962;51.980;5.678;2023-07-02T02:28:09;18.0;66.9
79513;SHT31;68962;51.980;5.678;2023-07-02T02:30:37;18.0;66.7
79513;SHT31;68962;51.980;5.678;2023-07-02T02:33:08;18.1;66.1
79513;SHT31;68962;51.980;5.678;2023-07-02T02:35:36;18.1;65.8
79513;SHT31;68962;51.980;5.678;2023-07-02T02:38:05;18.0;66.0
79513;SHT31;68962;51.980;5.678;2023-07-02T02:40:34;17.9;66.1
79513;SHT31;68962;51.980;5.678;2023-07-02T02:43:02;17.9;66.6
79513;SHT31;68962;51.980;5.678;2023-07-02T02:45:31;17.8;66.7
79513;SHT31;68962;51.980;5.678;2023-07-02T02:47:59;17.7;66.4
79513;SHT31;68962;51.980;5.678;2023-07-02T02:50:30;17.7;66.6
79513;SHT31;68962;51.980;5.678;2023-07-02T02:52:59;17.6;66.6
79513;SHT31;68962;51.980;5.678;2023-07-02T02:55:28;17.6;67.0
79513;SHT31;68962;51.980;5.678;2023-07-02T02:57:56;17.5;67.3
79513;SHT31;68962;51.980;5.678;2023-07-02T03:00:25;17.4;67.6
79513;SHT31;68962;51.980;5.678;2023-07-02T03:02:54;17.4;67.9
79513;SHT31;68962;51.980;5.678;2023-07-02T03:05:23;17.4;68.3
79513;SHT31;68962;51.980;5.678;2023-07-02T03:07:52;17.3;68.3
79513;SHT31;68962;51.980;5.678;2023-07-02T03:10:21;17.3;68.4
79513;SHT31;68962;51.980;5.678;2023-07-02T03:12:52;17.3;68.5
79513;SHT31;68962;51.980;5.678;2023-07-02T03:15:20;17.3;68.6
79513;SHT31;68962;51.980;5.678;2023-07-02T03:17:49;17.3;68.6
79513;SHT31;68962;51.980;5.678;2023-07-02T03:20:18;17.3;68.7
79513;SHT31;68962;51.980;5.678;2023-07-02T03:22:46;17.3;68.8
79513;SHT31;68962;51.980;5.678;2023-07-02T03:25:15;17.3;68.7
79513;SHT31;68962;51.980;5.678;2023-07-02T03:27:44;17.3;68.6
79513;SHT31;68962;51.980;5.678;2023-07-02T03:30:13;17.3;68.3
79513;SHT31;68962;51.980;5.678;2023-07-02T03:32:41;17.3;68.0
79513;SHT31;68962;51.980;5.678;2023-07-02T03:35:12;17.3;68.1
79513;SHT31;68962;51.980;5.678;2023-07-02T03:37:41;17.3;67.9
79513;SHT31;68962;51.980;5.678;2023-07-02T03:40:11;17.3;67.9
79513;SHT31;68962;51.980;5.678;2023-07-02T03:42:39;17.3;67.6
79513;SHT31;68962;51.980;5.678;2023-07-02T03:45:09;17.3;67.5
79513;SHT31;68962;51.980;5.678;2023-07-02T03:47:37;17.3;67.1
79513;SHT31;68962;51.980;5.678;2023-07-02T03:50:06;17.3;66.8
79513;SHT31;68962;51.980;5.678;2023-07-02T03:52:35;17.3;66.8
79513;SHT31;68962;51.980;5.678;2023-07-02T03:55:04;17.2;66.7
79513;SHT31;68962;51.980;5.678;2023-07-02T03:57:33;17.2;66.7
79513;SHT31;68962;51.980;5.678;2023-07-02T04:00:02;17.2;66.2
79513;SHT31;68962;51.980;5.678;2023-07-02T04:02:32;17.2;66.3
79513;SHT31;68962;51.980;5.678;2023-07-02T04:05:01;17.2;66.5
79513;SHT31;68962;51.980;5.678;2023-07-02T04:07:30;17.1;66.1
79513;SHT31;68962;51.980;5.678;2023-07-02T04:09:59;17.1;65.8
79513;SHT31;68962;51.980;5.678;2023-07-02T04:12:30;17.1;65.8
79513;SHT31;68962;51.980;5.678;2023-07-02T04:14:59;17.2;65.8
79513;SHT31;68962;51.980;5.678;2023-07-02T04:17:28;17.3;65.4
79513;SHT31;68962;51.980;5.678;2023-07-02T04:20:00;17.4;64.7
79513;SHT31;68962;51.980;5.678;2023-07-02T04:22:29;17.4;64.7
79513;SHT31;68962;51.980;5.678;2023-07-02T04:24:58;17.5;64.0
79513;SHT31;68962;51.980;5.678;2023-07-02T04:27:27;17.5;64.0
79513;SHT31;68962;51.980;5.678;2023-07-02T04:29:55;17.6;64.3
79513;SHT31;68962;51.980;5.678;2023-07-02T04:32:24;17.6;63.8
79513;SHT31;68962;51.980;5.678;2023-07-02T04:34:53;17.7;63.5
79513;SHT31;68962;51.980;5.678;2023-07-02T04:37:22;17.8;63.4
79513;SHT31;68962;51.980;5.678;2023-07-02T04:39:51;18.0;62.2
79513;SHT31;68962;51.980;5.678;2023-07-02T04:42:20;18.2;61.6
79513;SHT31;68962;51.980;5.678;2023-07-02T04:44:48;18.5;60.8
79513;SHT31;68962;51.980;5.678;2023-07-02T04:47:17;18.7;59.9
79513;SHT31;68962;51.980;5.678;2023-07-02T04:49:45;19.0;58.6
79513;SHT31;68962;51.980;5.678;2023-07-02T04:52:14;19.4;57.6
79513;SHT31;68962;51.980;5.678;2023-07-02T04:54:43;19.8;56.2
79513;SHT31;68962;51.980;5.678;2023-07-02T04:57:12;20.2;54.0
79513;SHT31;68962;51.980;5.678;2023-07-02T04:59:41;20.5;53.5
79513;SHT31;68962;51.980;5.678;2023-07-02T05:02:10;20.7;52.8
79513;SHT31;68962;51.980;5.678;2023-07-02T05:04:39;20.9;51.6
79513;SHT31;68962;51.980;5.678;2023-07-02T05:07:07;21.2;51.5
79513;SHT31;68962;51.980;5.678;2023-07-02T05:09:36;21.4;50.4
79513;SHT31;68962;51.980;5.678;2023-07-02T05:12:05;21.6;49.9
79513;SHT31;68962;51.980;5.678;2023-07-02T05:14:34;21.7;49.9
79513;SHT31;68962;51.980;5.678;2023-07-02T05:17:03;21.9;49.0
79513;SHT31;68962;51.980;5.678;2023-07-02T05:19:31;22.0;48.8
79513;SHT31;68962;51.980;5.678;2023-07-02T05:22:00;22.1;47.8
79513;SHT31;68962;51.980;5.678;2023-07-02T05:24:28;22.2;48.0
79513;SHT31;68962;51.980;5.678;2023-07-02T05:26:57;22.2;47.7
79513;SHT31;68962;51.980;5.678;2023-07-02T05:29:25;22.1;48.0
79513;SHT31;68962;51.980;5.678;2023-07-02T05:31:54;22.1;47.3
79513;SHT31;68962;51.980;5.678;2023-07-02T05:34:23;22.0;47.5
79513;SHT31;68962;51.980;5.678;2023-07-02T05:36:52;22.0;47.3
79513;SHT31;68962;51.980;5.678;2023-07-02T05:39:20;21.9;47.5
79513;SHT31;68962;51.980;5.678;2023-07-02T05:41:50;21.8;47.9
79513;SHT31;68962;51.980;5.678;2023-07-02T05:44:18;21.7;48.3
79513;SHT31;68962;51.980;5.678;2023-07-02T05:46:47;21.6;48.2
79513;SHT31;68962;51.980;5.678;2023-07-02T05:49:15;21.6;48.2
79513;SHT31;68962;51.980;5.678;2023-07-02T05:51:44;21.5;48.2
79513;SHT31;68962;51.980;5.678;2023-07-02T05:54:13;21.4;48.5
79513;SHT31;68962;51.980;5.678;2023-07-02T05:56:41;21.4;48.8
79513;SHT31;68962;51.980;5.678;2023-07-02T05:59:12;21.4;48.7
79513;SHT31;68962;51.980;5.678;2023-07-02T06:01:44;21.4;48.8
79513;SHT31;68962;51.980;5.678;2023-07-02T06:04:12;21.4;48.5
79513;SHT31;68962;51.980;5.678;2023-07-02T06:06:41;21.5;49.2
79513;SHT31;68962;51.980;5.678;2023-07-02T06:09:10;21.6;48.6
79513;SHT31;68962;51.980;5.678;2023-07-02T06:11:38;21.8;48.1
79513;SHT31;68962;51.980;5.678;2023-07-02T06:14:07;22.1;47.5
79513;SHT31;68962;51.980;5.678;2023-07-02T06:16:36;22.3;46.8
79513;SHT31;68962;51.980;5.678;2023-07-02T06:19:05;22.5;46.3
79513;SHT31;68962;51.980;5.678;2023-07-02T06:21:33;22.6;46.4
79513;SHT31;68962;51.980;5.678;2023-07-02T06:24:03;22.7;46.3
79513;SHT31;68962;51.980;5.678;2023-07-02T06:26:33;22.9;45.7
79513;SHT31;68962;51.980;5.678;2023-07-02T06:29:04;23.0;45.1
79513;SHT31;68962;51.980;5.678;2023-07-02T06:31:33;23.1;45.0
79513;SHT31;68962;51.980;5.678;2023-07-02T06:34:01;23.1;44.8
79513;SHT31;68962;51.980;5.678;2023-07-02T06:36:30;23.2;44.7
79513;SHT31;68962;51.980;5.678;2023-07-02T06:38:58;23.3;44.1
79513;SHT31;68962;51.980;5.678;2023-07-02T06:41:27;23.4;44.3
79513;SHT31;68962;51.980;5.678;2023-07-02T06:43:56;23.4;44.3
79513;SHT31;68962;51.980;5.678;2023-07-02T06:46:24;23.5;44.2
79513;SHT31;68962;51.980;5.678;2023-07-02T06:48:53;23.6;43.7
79513;SHT31;68962;51.980;5.678;2023-07-02T06:51:22;23.7;43.5
79513;SHT31;68962;51.980;5.678;2023-07-02T06:53:52;23.8;42.7
79513;SHT31;68962;51.980;5.678;2023-07-02T06:56:21;23.9;43.0
79513;SHT31;68962;51.980;5.678;2023-07-02T06:58:49;24.0;42.8
79513;SHT31;68962;51.980;5.678;2023-07-02T07:01:18;24.1;42.5
79513;SHT31;68962;51.980;5.678;2023-07-02T07:03:48;24.1;42.4
79513;SHT31;68962;51.980;5.678;2023-07-02T07:06:17;24.1;41.8
79513;SHT31;68962;51.980;5.678;2023-07-02T07:08:46;24.1;41.9
79513;SHT31;68962;51.980;5.678;2023-07-02T07:11:15;24.1;41.4
79513;SHT31;68962;51.980;5.678;2023-07-02T07:13:44;24.1;40.9
79513;SHT31;68962;51.980;5.678;2023-07-02T07:16:13;24.0;41.5
79513;SHT31;68962;51.980;5.678;2023-07-02T07:18:43;24.0;42.3
79513;SHT31;68962;51.980;5.678;2023-07-02T07:21:12;24.3;41.5
79513;SHT31;68962;51.980;5.678;2023-07-02T07:23:41;24.5;40.7
79513;SHT31;68962;51.980;5.678;2023-07-02T07:26:10;24.5;40.8
79513;SHT31;68962;51.980;5.678;2023-07-02T07:28:39;24.5;41.1
79513;SHT31;68962;51.980;5.678;2023-07-02T07:31:08;24.5;41.1
79513;SHT31;68962;51.980;5.678;2023-07-02T07:33:37;24.5;41.6
79513;SHT31;68962;51.980;5.678;2023-07-02T07:36:06;24.6;41.3
79513;SHT31;68962;51.980;5.678;2023-07-02T07:38:35;24.6;41.5
79513;SHT31;68962;51.980;5.678;2023-07-02T07:41:03;24.7;41.4
79513;SHT31;68962;51.980;5.678;2023-07-02T07:43:34;24.8;40.6
79513;SHT31;68962;51.980;5.678;2023-07-02T07:46:03;24.8;40.9
79513;SHT31;68962;51.980;5.678;2023-07-02T07:48:31;24.7;40.3
79513;SHT31;68962;51.980;5.678;2023-07-02T07:51:00;24.6;41.1
79513;SHT31;68962;51.980;5.678;2023-07-02T07:53:29;24.4;41.7
79513;SHT31;68962;51.980;5.678;2023-07-02T07:55:57;24.2;42.2
79513;SHT31;68962;51.980;5.678;2023-07-02T07:58:26;24.2;41.8
79513;SHT31;68962;51.980;5.678;2023-07-02T08:00:55;24.2;41.7
79513;SHT31;68962;51.980;5.678;2023-07-02T08:03:24;24.2;42.4
79513;SHT31;68962;51.980;5.678;2023-07-02T08:05:52;25.0;40.3
79513;SHT31;68962;51.980;5.678;2023-07-02T08:08:21;26.1;37.1
79513;SHT31;68962;51.980;5.678;2023-07-02T08:10:49;26.7;35.3
79513;SHT31;68962;51.980;5.678;2023-07-02T08:13:18;27.0;35.0
79513;SHT31;68962;51.980;5.678;2023-07-02T08:15:47;27.4;33.7
79513;SHT31;68962;51.980;5.678;2023-07-02T08:18:16;27.5;33.6
79513;SHT31;68962;51.980;5.678;2023-07-02T08:20:44;27.4;33.0
79513;SHT31;68962;51.980;5.678;2023-07-02T08:23:15;27.3;33.3
79513;SHT31;68962;51.980;5.678;2023-07-02T08:25:44;27.0;33.5
79513;SHT31;68962;51.980;5.678;2023-07-02T08:28:12;26.7;33.1
79513;SHT31;68962;51.980;5.678;2023-07-02T08:30:41;26.4;33.9
79513;SHT31;68962;51.980;5.678;2023-07-02T08:33:09;26.2;34.3
79513;SHT31;68962;51.980;5.678;2023-07-02T08:35:40;26.1;35.0
79513;SHT31;68962;51.980;5.678;2023-07-02T08:38:08;25.9;35.7
79513;SHT31;68962;51.980;5.678;2023-07-02T08:40:37;25.9;36.2
79513;SHT31;68962;51.980;5.678;2023-07-02T08:43:07;26.1;36.3
79513;SHT31;68962;51.980;5.678;2023-07-02T08:45:36;26.8;35.0
79513;SHT31;68962;51.980;5.678;2023-07-02T08:48:06;27.4;33.6
79513;SHT31;68962;51.980;5.678;2023-07-02T08:50:35;27.6;33.0
79513;SHT31;68962;51.980;5.678;2023-07-02T08:53:05;27.6;33.7
79513;SHT31;68962;51.980;5.678;2023-07-02T08:55:33;27.5;33.2
79513;SHT31;68962;51.980;5.678;2023-07-02T08:58:02;27.4;33.3
79513;SHT31;68962;51.980;5.678;2023-07-02T09:00:33;27.3;33.3
79513;SHT31;68962;51.980;5.678;2023-07-02T09:03:12;27.6;32.7
79513;SHT31;68962;51.980;5.678;2023-07-02T09:05:53;28.4;30.2
79513;SHT31;68962;51.980;5.678;2023-07-02T09:08:25;29.1;28.1
79513;SHT31;68962;51.980;5.678;2023-07-02T09:10:54;29.1;28.4
79513;SHT31;68962;51.980;5.678;2023-07-02T09:13:23;29.0;28.0
79513;SHT31;68962;51.980;5.678;2023-07-02T09:15:51;28.9;28.9
79513;SHT31;68962;51.980;5.678;2023-07-02T09:18:22;28.9;28.5
79513;SHT31;68962;51.980;5.678;2023-07-02T09:27:49;28.3;28.8
79513;SHT31;68962;51.980;5.678;2023-07-02T09:30:17;28.7;27.6
79513;SHT31;68962;51.980;5.678;2023-07-02T09:32:46;28.9;27.3
79513;SHT31;68962;51.980;5.678;2023-07-02T09:35:15;29.0;26.9
79513;SHT31;68962;51.980;5.678;2023-07-02T09:37:44;29.2;26.6
79513;SHT31;68962;51.980;5.678;2023-07-02T09:40:13;29.4;26.4
79513;SHT31;68962;51.980;5.678;2023-07-02T09:42:45;29.5;26.4
79513;SHT31;68962;51.980;5.678;2023-07-02T09:45:19;29.6;26.2
79513;SHT31;68962;51.980;5.678;2023-07-02T09:47:49;29.8;26.4
79513;SHT31;68962;51.980;5.678;2023-07-02T09:50:23;29.8;26.0
79513;SHT31;68962;51.980;5.678;2023-07-02T09:52:52;29.8;25.5
79513;SHT31;68962;51.980;5.678;2023-07-02T09:55:21;29.8;25.9
79513;SHT31;68962;51.980;5.678;2023-07-02T09:57:50;29.9;25.7
79513;SHT31;68962;51.980;5.678;2023-07-02T10:00:18;30.2;25.3
79513;SHT31;68962;51.980;5.678;2023-07-02T10:02:50;30.4;25.0
79513;SHT31;68962;51.980;5.678;2023-07-02T10:05:36;30.6;24.7
79513;SHT31;68962;51.980;5.678;2023-07-02T10:08:16;30.8;24.4
79513;SHT31;68962;51.980;5.678;2023-07-02T10:10:45;30.8;23.9
79513;SHT31;68962;51.980;5.678;2023-07-02T10:13:14;30.6;23.9
79513;SHT31;68962;51.980;5.678;2023-07-02T10:15:43;30.3;24.6
79513;SHT31;68962;51.980;5.678;2023-07-02T10:18:11;30.1;25.2
79513;SHT31;68962;51.980;5.678;2023-07-02T10:20:41;30.0;25.1
79513;SHT31;68962;51.980;5.678;2023-07-02T10:23:10;30.1;24.9
79513;SHT31;68962;51.980;5.678;2023-07-02T10:25:38;30.2;25.2
79513;SHT31;68962;51.980;5.678;2023-07-02T10:28:18;30.5;25.3
79513;SHT31;68962;51.980;5.678;2023-07-02T10:30:49;30.9;25.3
79513;SHT31;68962;51.980;5.678;2023-07-02T10:33:21;31.1;24.5
79513;SHT31;68962;51.980;5.678;2023-07-02T10:35:50;31.3;23.5
79513;SHT31;68962;51.980;5.678;2023-07-02T10:38:21;31.3;23.5
79513;SHT31;68962;51.980;5.678;2023-07-02T10:40:56;31.2;23.3
79513;SHT31;68962;51.980;5.678;2023-07-02T10:43:26;31.1;23.3
79513;SHT31;68962;51.980;5.678;2023-07-02T10:45:56;31.0;23.1
79513;SHT31;68962;51.980;5.678;2023-07-02T10:48:26;30.9;23.9
79513;SHT31;68962;51.980;5.678;2023-07-02T10:50:54;30.8;23.7
79513;SHT31;68962;51.980;5.678;2023-07-02T10:53:25;30.8;24.1
79513;SHT31;68962;51.980;5.678;2023-07-02T10:55:57;30.8;23.8
79513;SHT31;68962;51.980;5.678;2023-07-02T10:58:26;30.8;24.0
79513;SHT31;68962;51.980;5.678;2023-07-02T11:00:55;31.0;23.6
79513;SHT31;68962;51.980;5.678;2023-07-02T11:03:26;31.1;23.4
79513;SHT31;68962;51.980;5.678;2023-07-02T11:05:55;31.2;22.9
79513;SHT31;68962;51.980;5.678;2023-07-02T11:08:37;31.2;22.9
79513;SHT31;68962;51.980;5.678;2023-07-02T11:11:07;31.2;22.7
79513;SHT31;68962;51.980;5.678;2023-07-02T11:13:47;31.2;22.7
79513;SHT31;68962;51.980;5.678;2023-07-02T11:16:20;31.2;22.9
79513;SHT31;68962;51.980;5.678;2023-07-02T11:18:52;31.2;23.0
79513;SHT31;68962;51.980;5.678;2023-07-02T11:21:22;31.1;23.0
79513;SHT31;68962;51.980;5.678;2023-07-02T11:23:50;31.0;22.8
79513;SHT31;68962;51.980;5.678;2023-07-02T11:26:36;31.0;22.7
79513;SHT31;68962;51.980;5.678;2023-07-02T11:29:10;30.9;23.1
79513;SHT31;68962;51.980;5.678;2023-07-02T11:31:39;30.7;22.7
79513;SHT31;68962;51.980;5.678;2023-07-02T11:34:13;30.6;22.6
79513;SHT31;68962;51.980;5.678;2023-07-02T11:36:43;30.4;23.8
79513;SHT31;68962;51.980;5.678;2023-07-02T11:39:11;30.3;23.7
79513;SHT31;68962;51.980;5.678;2023-07-02T11:41:44;30.2;23.6
79513;SHT31;68962;51.980;5.678;2023-07-02T11:44:13;30.0;23.4
79513;SHT31;68962;51.980;5.678;2023-07-02T11:46:42;29.7;23.7
79513;SHT31;68962;51.980;5.678;2023-07-02T11:49:10;29.4;24.1
79513;SHT31;68962;51.980;5.678;2023-07-02T11:51:40;29.3;24.3
79513;SHT31;68962;51.980;5.678;2023-07-02T11:54:14;29.1;24.5
79513;SHT31;68962;51.980;5.678;2023-07-02T11:56:44;28.9;25.1
79513;SHT31;68962;51.980;5.678;2023-07-02T11:59:13;28.7;24.9
79513;SHT31;68962;51.980;5.678;2023-07-02T12:01:42;28.6;25.0
79513;SHT31;68962;51.980;5.678;2023-07-02T12:04:11;28.4;25.0
79513;SHT31;68962;51.980;5.678;2023-07-02T12:06:40;28.2;25.5
79513;SHT31;68962;51.980;5.678;2023-07-02T12:09:09;28.0;26.2
79513;SHT31;68962;51.980;5.678;2023-07-02T12:11:38;27.8;25.7
79513;SHT31;68962;51.980;5.678;2023-07-02T12:14:08;27.6;25.8
79513;SHT31;68962;51.980;5.678;2023-07-02T12:16:36;27.4;25.8
79513;SHT31;68962;51.980;5.678;2023-07-02T12:19:05;27.2;25.4
79513;SHT31;68962;51.980;5.678;2023-07-02T12:21:33;27.0;26.7
79513;SHT31;68962;51.980;5.678;2023-07-02T12:24:02;26.9;26.5
79513;SHT31;68962;51.980;5.678;2023-07-02T12:26:35;26.7;27.0
79513;SHT31;68962;51.980;5.678;2023-07-02T12:29:03;26.5;27.9
79513;SHT31;68962;51.980;5.678;2023-07-02T12:31:32;26.5;27.2
79513;SHT31;68962;51.980;5.678;2023-07-02T12:34:03;26.4;27.6
79513;SHT31;68962;51.980;5.678;2023-07-02T12:36:32;26.4;27.7
79513;SHT31;68962;51.980;5.678;2023-07-02T12:39:00;26.3;27.6
79513;SHT31;68962;51.980;5.678;2023-07-02T12:41:29;26.3;27.4
79513;SHT31;68962;51.980;5.678;2023-07-02T12:43:58;26.2;28.0
79513;SHT31;68962;51.980;5.678;2023-07-02T12:46:26;26.1;28.3
79513;SHT31;68962;51.980;5.678;2023-07-02T12:48:55;26.1;27.8
79513;SHT31;68962;51.980;5.678;2023-07-02T12:51:25;26.0;28.0
79513;SHT31;68962;51.980;5.678;2023-07-02T12:53:54;26.0;28.5
79513;SHT31;68962;51.980;5.678;2023-07-02T12:56:23;25.9;28.8
79513;SHT31;68962;51.980;5.678;2023-07-02T12:58:51;25.8;29.4
79513;SHT31;68962;51.980;5.678;2023-07-02T13:01:20;25.8;29.2
79513;SHT31;68962;51.980;5.678;2023-07-02T13:03:50;25.8;29.7
79513;SHT31;68962;51.980;5.678;2023-07-02T13:06:21;25.7;29.7
79513;SHT31;68962;51.980;5.678;2023-07-02T13:08:50;25.7;29.5
79513;SHT31;68962;51.980;5.678;2023-07-02T13:11:19;25.7;29.9
79513;SHT31;68962;51.980;5.678;2023-07-02T13:13:48;25.7;30.4
79513;SHT31;68962;51.980;5.678;2023-07-02T13:16:16;25.8;31.0
79513;SHT31;68962;51.980;5.678;2023-07-02T13:18:45;25.9;31.0
79513;SHT31;68962;51.980;5.678;2023-07-02T13:21:13;25.9;30.5
79513;SHT31;68962;51.980;5.678;2023-07-02T13:23:42;25.9;30.5
79513;SHT31;68962;51.980;5.678;2023-07-02T13:26:13;25.9;30.3
79513;SHT31;68962;51.980;5.678;2023-07-02T13:28:41;25.8;30.3
79513;SHT31;68962;51.980;5.678;2023-07-02T13:31:14;25.8;30.6
79513;SHT31;68962;51.980;5.678;2023-07-02T13:33:43;25.7;30.8
79513;SHT31;68962;51.980;5.678;2023-07-02T13:36:12;25.7;30.1
79513;SHT31;68962;51.980;5.678;2023-07-02T13:38:42;25.6;31.6
79513;SHT31;68962;51.980;5.678;2023-07-02T13:41:10;25.5;31.3
79513;SHT31;68962;51.980;5.678;2023-07-02T13:43:39;25.4;31.2
79513;SHT31;68962;51.980;5.678;2023-07-02T13:46:07;25.4;31.0
79513;SHT31;68962;51.980;5.678;2023-07-02T13:48:36;25.3;31.0
79513;SHT31;68962;51.980;5.678;2023-07-02T13:51:07;25.3;31.7
79513;SHT31;68962;51.980;5.678;2023-07-02T13:53:36;25.2;31.8
79513;SHT31;68962;51.980;5.678;2023-07-02T13:56:05;25.2;32.0
79513;SHT31;68962;51.980;5.678;2023-07-02T14:01:15;25.2;31.8
79513;SHT31;68962;51.980;5.678;2023-07-02T14:03:43;25.2;32.5
79513;SHT31;68962;51.980;5.678;2023-07-02T14:06:12;25.3;32.0
79513;SHT31;68962;51.980;5.678;2023-07-02T14:08:41;25.3;32.3
79513;SHT31;68962;51.980;5.678;2023-07-02T14:11:10;25.3;32.2
79513;SHT31;68962;51.980;5.678;2023-07-02T14:13:38;25.3;32.6
79513;SHT31;68962;51.980;5.678;2023-07-02T14:16:07;25.3;32.3
79513;SHT31;68962;51.980;5.678;2023-07-02T14:18:36;25.3;32.3
79513;SHT31;68962;51.980;5.678;2023-07-02T14:21:04;25.2;32.1
79513;SHT31;68962;51.980;5.678;2023-07-02T14:23:33;25.2;32.2
79513;SHT31;68962;51.980;5.678;2023-07-02T14:26:01;25.2;31.7
79513;SHT31;68962;51.980;5.678;2023-07-02T14:28:30;25.1;32.5
79513;SHT31;68962;51.980;5.678;2023-07-02T14:31:00;25.0;32.2
79513;SHT31;68962;51.980;5.678;2023-07-02T14:33:31;25.0;32.5
79513;SHT31;68962;51.980;5.678;2023-07-02T14:36:00;25.0;31.9
79513;SHT31;68962;51.980;5.678;2023-07-02T14:38:30;24.9;31.2
79513;SHT31;68962;51.980;5.678;2023-07-02T14:41:00;24.9;31.2
79513;SHT31;68962;51.980;5.678;2023-07-02T14:43:30;24.8;30.3
79513;SHT31;68962;51.980;5.678;2023-07-02T14:46:01;24.7;29.9
79513;SHT31;68962;51.980;5.678;2023-07-02T14:48:30;24.6;29.5
79513;SHT31;68962;51.980;5.678;2023-07-02T14:51:00;24.5;29.9
79513;SHT31;68962;51.980;5.678;2023-07-02T14:53:31;24.4;30.2
79513;SHT31;68962;51.980;5.678;2023-07-02T14:56:02;24.3;30.7
79513;SHT31;68962;51.980;5.678;2023-07-02T14:58:31;24.2;31.6
79513;SHT31;68962;51.980;5.678;2023-07-02T15:01:00;24.2;31.1
79513;SHT31;68962;51.980;5.678;2023-07-02T15:03:29;24.1;30.9
79513;SHT31;68962;51.980;5.678;2023-07-02T15:06:07;24.1;31.0
79513;SHT31;68962;51.980;5.678;2023-07-02T15:08:36;24.0;31.2
79513;SHT31;68962;51.980;5.678;2023-07-02T15:11:06;24.0;31.3
79513;SHT31;68962;51.980;5.678;2023-07-02T15:13:35;23.9;30.8
79513;SHT31;68962;51.980;5.678;2023-07-02T15:16:05;23.9;30.7
79513;SHT31;68962;51.980;5.678;2023-07-02T15:18:34;23.8;30.6
79513;SHT31;68962;51.980;5.678;2023-07-02T15:21:05;23.7;31.2
79513;SHT31;68962;51.980;5.678;2023-07-02T15:23:33;23.7;31.8
79513;SHT31;68962;51.980;5.678;2023-07-02T15:26:04;23.7;31.7
79513;SHT31;68962;51.980;5.678;2023-07-02T15:28:33;23.7;31.5
79513;SHT31;68962;51.980;5.678;2023-07-02T15:31:07;23.7;32.0
79513;SHT31;68962;51.980;5.678;2023-07-02T15:33:37;23.7;31.9
79513;SHT31;68962;51.980;5.678;2023-07-02T15:36:07;23.7;31.7
79513;SHT31;68962;51.980;5.678;2023-07-02T15:38:36;23.7;32.2
79513;SHT31;68962;51.980;5.678;2023-07-02T15:41:12;23.7;32.2
79513;SHT31;68962;51.980;5.678;2023-07-02T15:43:43;23.7;32.3
79513;SHT31;68962;51.980;5.678;2023-07-02T15:46:15;23.7;32.7
79513;SHT31;68962;51.980;5.678;2023-07-02T15:48:44;23.7;32.4
79513;SHT31;68962;51.980;5.678;2023-07-02T15:51:13;23.7;32.5
79513;SHT31;68962;51.980;5.678;2023-07-02T15:53:42;23.7;32.9
79513;SHT31;68962;51.980;5.678;2023-07-02T15:56:11;23.7;32.8
79513;SHT31;68962;51.980;5.678;2023-07-02T15:58:39;23.7;32.8
79513;SHT31;68962;51.980;5.678;2023-07-02T16:01:13;23.6;33.4
79513;SHT31;68962;51.980;5.678;2023-07-02T16:03:42;23.6;33.5
79513;SHT31;68962;51.980;5.678;2023-07-02T16:06:13;23.6;33.4
79513;SHT31;68962;51.980;5.678;2023-07-02T16:08:43;23.7;33.2
79513;SHT31;68962;51.980;5.678;2023-07-02T16:11:13;23.7;33.5
79513;SHT31;68962;51.980;5.678;2023-07-02T16:13:42;23.7;33.4
79513;SHT31;68962;51.980;5.678;2023-07-02T16:16:11;23.7;33.5
79513;SHT31;68962;51.980;5.678;2023-07-02T16:18:40;23.6;33.7
79513;SHT31;68962;51.980;5.678;2023-07-02T16:21:08;23.6;34.0
79513;SHT31;68962;51.980;5.678;2023-07-02T16:23:39;23.6;34.3
79513;SHT31;68962;51.980;5.678;2023-07-02T16:26:09;23.5;34.3
79513;SHT31;68962;51.980;5.678;2023-07-02T16:28:38;23.6;34.3
79513;SHT31;68962;51.980;5.678;2023-07-02T16:31:09;23.6;34.3
79513;SHT31;68962;51.980;5.678;2023-07-02T16:33:37;23.6;34.3
79513;SHT31;68962;51.980;5.678;2023-07-02T16:36:09;23.6;34.2
79513;SHT31;68962;51.980;5.678;2023-07-02T16:38:39;23.6;34.2
79513;SHT31;68962;51.980;5.678;2023-07-02T16:41:07;23.7;34.4
79513;SHT31;68962;51.980;5.678;2023-07-02T16:43:38;23.7;34.5
79513;SHT31;68962;51.980;5.678;2023-07-02T16:46:06;23.6;34.3
79513;SHT31;68962;51.980;5.678;2023-07-02T16:48:35;23.6;34.6
79513;SHT31;68962;51.980;5.678;2023-07-02T16:51:06;23.6;34.7
79513;SHT31;68962;51.980;5.678;2023-07-02T16:53:36;23.6;34.5
79513;SHT31;68962;51.980;5.678;2023-07-02T16:56:06;23.6;34.5
79513;SHT31;68962;51.980;5.678;2023-07-02T16:58:37;23.5;34.7
79513;SHT31;68962;51.980;5.678;2023-07-02T17:01:09;23.5;34.9
79513;SHT31;68962;51.980;5.678;2023-07-02T17:03:38;23.5;35.2
79513;SHT31;68962;51.980;5.678;2023-07-02T17:06:07;23.5;35.3
79513;SHT31;68962;51.980;5.678;2023-07-02T17:08:37;23.5;35.5
79513;SHT31;68962;51.980;5.678;2023-07-02T17:11:09;23.5;35.9